Flight Track Log - Related Links

Times and Time Zones

All times are in EDT time to prevent confusion due to time zone crossing. See the SKW6492 flight status page for this flight to view local times or setup timezone preferences in your user account.

Time Position Orientation Groundspeed Altitude Reporting Facility
EDT Latitude Longitude Course Direction KTS MPH feet Rate Location/Type
Fri 09:37:32 PM 39.9500 -104.6833 346° North 221 254 8,400  Level Denver TRACON
Fri 09:38:21 PM 40.0092 -104.6647 14° North 232 267 10,200 1,869 Climbing Denver Center
Fri 09:39:00 PM 40.1650 -104.7711 347° North  Level FlightAware Approximate
Fri 09:39:34 PM 40.0747 -104.6394 16° North 245 282 12,200  Level Denver Center
Fri 09:40:00 PM 40.2708 -104.8029 347° North  Level FlightAware Approximate
Fri 09:40:36 PM 40.1644 -104.6556 352° North 277 319 13,900  Level Denver Center
Fri 09:41:00 PM 40.3763 -104.8365 346° North  Level FlightAware Approximate
Fri 09:41:38 PM 40.2431 -104.6806 346° North 296 341 15,700  Level Denver Center
Fri 09:42:00 PM 40.4815 -104.8716 346° North  Level FlightAware Approximate
Fri 09:42:39 PM 40.3306 -104.7078 347° North 299 344 17,600  Level Denver Center
Fri 09:43:41 PM 40.4164 -104.7339 347° North 318 366 18,800 1,113 Climbing Denver Center
Fri 09:44:43 PM 40.5058 -104.7639 346° North 335 386 19,900 1,073 Climbing Denver Center
Fri 09:45:44 PM 40.6081 -104.7942 347° North 352 405 21,000 1,024 Climbing Denver Center
Fri 09:46:46 PM 40.7036 -104.8261 346° North 357 411 22,000 927 Climbing Denver Center
Fri 09:47:47 PM 40.7925 -104.8536 347° North 348 400 22,900 927 Climbing Denver Center
Fri 09:48:49 PM 40.8881 -104.8969 341° North 358 412 23,900 1,065 Climbing Denver Center
Fri 09:49:51 PM 41.0039 -104.9581 338° Northwest 369 425 25,100 1,073 Climbing Denver Center
Fri 09:50:52 PM 41.0886 -105.0319 327° Northwest 371 427 26,100 927 Climbing Denver Center
Fri 09:51:54 PM 41.1650 -105.1142 321° Northwest 371 427 27,000 756 Climbing Denver Center
Fri 09:53:07 PM 41.2553 -105.2122 321° Northwest 374 430 27,800 711 Climbing Denver Center
Fri 09:54:09 PM 41.3464 -105.3119 321° Northwest 379 436 28,600 726 Climbing Denver Center
Fri 09:55:11 PM 41.4389 -105.4133 321° Northwest 386 444 29,300 585 Climbing Denver Center
Fri 09:56:12 PM 41.5181 -105.4972 322° Northwest 382 440 29,800 488 Climbing Denver Center
Fri 09:57:14 PM 41.5972 -105.5889 319° Northwest 389 448 30,300 488 Climbing Denver Center
Fri 09:58:15 PM 41.6933 -105.6933 321° Northwest 395 455 30,800 488 Climbing Denver Center
Fri 09:59:17 PM 41.7736 -105.7814 321° Northwest 393 452 31,300 484 Climbing Denver Center
Fri 10:00:19 PM 41.8569 -105.8739 320° Northwest 402 463 31,800 339 Climbing Denver Center
Fri 10:01:21 PM 41.9500 -105.9794 320° Northwest 397 457 32,000 97 Climbing Denver Center
Fri 10:02:23 PM 42.0461 -106.0858 321° Northwest 398 458 32,000  Level Denver Center
Fri 10:03:24 PM 42.1289 -106.1800 320° Northwest 402 463 32,000  Level Denver Center
Fri 10:04:26 PM 42.2161 -106.2783 320° Northwest 422 486 32,000  Level Denver Center
Fri 10:05:27 PM 42.3178 -106.3936 320° Northwest 427 491 32,000  Level Denver Center
Fri 10:06:29 PM 42.4061 -106.4944 320° Northwest 431 496 32,000  Level Denver Center
Fri 10:07:30 PM 42.5106 -106.6117 320° Northwest 435 501 32,000  Level Denver Center
Fri 10:08:31 PM 42.5972 -106.7117 320° Northwest 430 495 32,000  Level Denver Center
Fri 10:09:33 PM 42.6839 -106.8119 320° Northwest 428 493 32,000  Level Denver Center
Fri 10:10:34 PM 42.7858 -106.9292 320° Northwest 428 493 32,000  Level Denver Center
Fri 10:11:36 PM 42.8731 -107.0297 320° Northwest 430 495 32,000  Level Denver Center
Fri 10:12:37 PM 42.9719 -107.1483 319° Northwest 426 490 32,000  Level Denver Center
Fri 10:13:38 PM 43.0550 -107.2436 320° Northwest 425 489 32,000  Level Denver Center
Fri 10:14:39 PM 43.1269 -107.3281 319° Northwest 426 490 32,000  Level Denver Center
Fri 10:15:41 PM 43.2167 -107.4339 319° Northwest 425 489 32,000  Level Denver Center
Fri 10:16:42 PM 43.3242 -107.5617 319° Northwest 427 491 32,000  Level Denver Center
Fri 10:17:44 PM 43.4147 -107.6686 319° Northwest 428 493 32,000  Level Denver Center
Fri 10:18:45 PM 43.5214 -107.7983 319° Northwest 427 491 32,000 -197 Level Denver Center
Fri 10:19:46 PM 43.6122 -107.9050 320° Northwest 428 493 31,600 -1,738 Descending Denver Center
Fri 10:21:10 PM 43.7458 -108.0711 318° Northwest 462 532 27,800 -2,897 Descending Salt Lake Center
Fri 10:22:11 PM 43.8378 -108.1825 319° Northwest 445 512 24,600 -2,951 Descending Salt Lake Center
Fri 10:23:12 PM 43.9253 -108.2889 319° Northwest 421 484 21,800 -2,829 Descending Salt Lake Center
Fri 10:24:14 PM 44.0075 -108.3900 319° Northwest 402 463 18,800 -2,585 Descending Salt Lake Center
Fri 10:25:15 PM 44.1008 -108.4489 336° Northwest 406 467 16,500 -2,311 Descending Salt Lake Center
Fri 10:26:16 PM 44.1842 -108.3586 38° Northeast 392 451 14,100 -2,262 Descending Salt Lake Center
Fri 10:27:17 PM 44.2622 -108.2700 39° Northeast 376 433 11,900 -1,902 Descending Salt Lake Center
Fri 10:28:19 PM 44.3297 -108.3344 326° Northwest 335 386 10,200 -1,415 Descending Salt Lake Center
Fri 10:29:20 PM 44.3586 -108.4353 292° West 301 346 9,000 -590 Descending Salt Lake Center
Fri 10:30:21 PM 44.3900 -108.5486 291° West 276 318 9,000  Level Salt Lake Center
Fri 10:31:23 PM 44.4344 -108.6308 307° West 271 312 9,000  Level Salt Lake Center
Fri 10:32:24 PM 44.4650 -108.7192 296° West 268 308 9,000 295 Level Salt Lake Center
Fri 10:33:25 PM 44.4497 -108.8175 258° West 263 303 9,600 492 Climbing Salt Lake Center
Fri 10:34:26 PM 44.4297 -108.9147 254° West 261 300 10,000 393 Climbing Salt Lake Center

Login

Don't have an account? Register now (free) for customized features, flight alerts, and more!